Time;durP1;ratioP1;P1;durP2;ratioP2;P2;SDS_P1;SDS_P2;PMS_P1;PMS_P2;Temp;Humidity;BMP_temperature;BMP_pressure;BME280_temperature;BME280_humidity;BME280_pressure;Samples;Min_cycle;Max_cycle;Signal;HPM_P1;HPM_P2
2022/12/30 00:00:14;;;;;;;3.60;0.93;;;9.00;99.90;;;;;;4961719;28;20022;-87
2022/12/30 00:02:40;;;;;;;4.27;1.00;;;9.00;99.90;;;;;;4956577;28;20033;-87
2022/12/30 00:05:06;;;;;;;4.40;1.30;;;9.00;99.90;;;;;;4974857;28;20029;-88
2022/12/30 00:07:34;;;;;;;2.22;1.10;;;9.00;99.90;;;;;;4957072;28;20212;-87
2022/12/30 00:10:03;;;;;;;2.37;0.70;;;9.00;99.90;;;;;;4969824;28;20446;-87
2022/12/30 00:35:00;;;;;;;2.20;0.90;;;8.80;99.90;;;;;;4997274;28;21418;-88
2022/12/30 00:37:26;;;;;;;4.93;1.00;;;8.80;99.90;;;;;;4964883;28;20034;-87
2022/12/30 00:39:52;;;;;;;4.75;1.17;;;8.70;99.90;;;;;;4989489;28;20583;-88
2022/12/30 00:45:03;;;;;;;5.20;1.17;;;8.80;99.90;;;;;;5012142;28;20706;-87
2022/12/30 00:47:28;;;;;;;5.25;1.20;;;8.80;99.90;;;;;;4952596;28;20034;-87
2022/12/30 00:58:07;;;;;;;3.22;0.82;;;8.70;99.90;;;;;;4982834;28;20084;-87
2022/12/30 01:00:32;;;;;;;2.08;0.98;;;8.70;99.90;;;;;;4969851;28;20025;-87
2022/12/30 01:02:58;;;;;;;3.13;1.13;;;8.80;99.90;;;;;;4965898;28;20437;-87
2022/12/30 01:05:24;;;;;;;4.85;1.48;;;8.70;99.90;;;;;;4981874;28;20121;-88
2022/12/30 01:07:51;;;;;;;3.97;1.20;;;8.80;99.90;;;;;;4971880;28;20405;-87
2022/12/30 01:10:16;;;;;;;3.35;1.08;;;8.70;99.90;;;;;;4974894;28;20075;-87
2022/12/30 01:12:42;;;;;;;4.60;1.05;;;8.70;99.90;;;;;;4965375;28;20037;-87
2022/12/30 01:15:09;;;;;;;2.93;1.10;;;8.70;99.90;;;;;;4979213;28;20021;-87
2022/12/30 01:17:35;;;;;;;2.75;1.27;;;8.70;99.90;;;;;;4986908;28;20411;-87
2022/12/30 01:20:01;;;;;;;2.85;1.02;;;8.70;99.90;;;;;;4975587;28;20044;-87
2022/12/30 01:22:27;;;;;;;6.17;1.20;;;8.70;99.90;;;;;;4962825;28;20025;-88
2022/12/30 01:24:52;;;;;;;4.25;0.77;;;8.70;99.90;;;;;;4976613;28;20043;-87
2022/12/30 01:27:18;;;;;;;3.40;1.10;;;8.70;99.90;;;;;;4983257;28;20039;-87
2022/12/30 01:29:45;;;;;;;6.73;1.63;;;8.70;99.90;;;;;;4982439;28;20501;-87
2022/12/30 01:32:17;;;;;;;4.78;1.20;;;8.70;99.90;;;;;;4955750;28;20211;-87
2022/12/30 01:34:43;;;;;;;3.67;1.20;;;8.70;99.90;;;;;;4973950;28;20025;-87
2022/12/30 01:37:09;;;;;;;4.53;1.42;;;8.60;99.90;;;;;;4966510;28;20731;-87
2022/12/30 01:39:35;;;;;;;4.82;1.00;;;8.60;99.90;;;;;;4961787;28;20014;-88
2022/12/30 01:42:02;;;;;;;4.17;1.10;;;8.60;99.90;;;;;;4980026;28;20622;-88
2022/12/30 01:44:52;;;;;;;5.72;1.30;;;8.60;99.90;;;;;;4964118;28;20021;-87
2022/12/30 01:47:44;;;;;;;2.92;1.00;;;8.60;99.90;;;;;;4972916;28;20387;-87
2022/12/30 01:50:10;;;;;;;2.60;0.93;;;8.60;99.90;;;;;;4979738;28;20394;-87
2022/12/30 01:52:42;;;;;;;3.50;1.10;;;8.60;99.90;;;;;;4974535;28;20042;-88
2022/12/30 01:55:14;;;;;;;4.22;1.35;;;8.60;99.90;;;;;;4961350;28;20109;-87
2022/12/30 01:57:45;;;;;;;1.88;0.90;;;8.50;99.90;;;;;;4960415;28;20386;-88
2022/12/30 02:00:11;;;;;;;3.55;1.48;;;8.60;99.90;;;;;;4976405;28;20059;-87
2022/12/30 02:02:37;;;;;;;6.60;1.43;;;8.60;99.90;;;;;;4973870;28;20741;-87
2022/12/30 02:05:05;;;;;;;3.15;1.00;;;8.50;99.90;;;;;;4953073;28;20228;-88
2022/12/30 02:07:42;;;;;;;8.40;1.23;;;8.50;99.90;;;;;;4975748;28;20100;-87
2022/12/30 02:10:09;;;;;;;3.63;0.90;;;8.50;99.90;;;;;;4967425;28;20065;-87
2022/12/30 02:12:35;;;;;;;4.43;0.90;;;8.50;99.90;;;;;;4956752;28;20045;-88
2022/12/30 02:15:03;;;;;;;2.75;1.00;;;8.50;99.90;;;;;;4983053;28;20022;-88
2022/12/30 02:17:56;;;;;;;3.97;1.10;;;8.50;99.90;;;;;;4976772;28;20124;-88
2022/12/30 02:20:31;;;;;;;3.00;0.90;;;8.40;99.90;;;;;;4955470;28;20022;-88
2022/12/30 02:23:24;;;;;;;4.07;0.87;;;8.50;99.90;;;;;;4969249;28;20584;-88
2022/12/30 02:26:27;;;;;;;2.47;0.68;;;8.40;99.90;;;;;;4989339;28;20112;-88
2022/12/30 02:29:18;;;;;;;3.92;0.80;;;8.40;99.90;;;;;;4956659;28;20063;-88
2022/12/30 02:31:44;;;;;;;1.63;0.80;;;8.40;99.90;;;;;;4975781;28;20211;-88
2022/12/30 02:34:24;;;;;;;2.37;1.40;;;8.40;99.90;;;;;;4949184;28;20056;-88
2022/12/30 02:37:03;;;;;;;3.70;0.85;;;8.40;99.90;;;;;;4974644;28;20096;-88
2022/12/30 02:39:59;;;;;;;2.53;0.80;;;8.30;99.90;;;;;;4987378;28;21044;-88
2022/12/30 02:45:47;;;;;;;2.58;0.90;;;8.30;99.90;;;;;;4972869;28;20032;-88
2022/12/30 02:48:34;;;;;;;3.40;1.33;;;8.20;99.90;;;;;;4972036;28;20262;-88
2022/12/30 02:53:46;;;;;;;3.70;0.90;;;8.10;99.90;;;;;;4990276;28;20120;-87
2022/12/30 02:56:12;;;;;;;4.03;0.80;;;8.10;99.90;;;;;;4960877;28;20344;-88
2022/12/30 02:58:44;;;;;;;5.23;0.80;;;8.10;99.90;;;;;;4968491;28;20022;-88
2022/12/30 03:04:21;;;;;;;2.38;0.65;;;7.90;99.90;;;;;;4988241;28;20040;-89
2022/12/30 03:06:50;;;;;;;2.33;0.80;;;8.00;99.90;;;;;;4954199;28;20037;-89
2022/12/30 03:09:41;;;;;;;2.10;0.80;;;7.90;99.90;;;;;;4972184;28;20328;-88
2022/12/30 03:12:27;;;;;;;3.20;0.90;;;7.90;99.90;;;;;;4958374;28;20034;-88
2022/12/30 03:15:03;;;;;;;3.17;0.88;;;7.80;99.90;;;;;;4996214;28;20029;-88
2022/12/30 03:17:33;;;;;;;2.67;1.10;;;7.80;99.90;;;;;;4987704;28;20144;-88
2022/12/30 03:20:11;;;;;;;4.23;1.23;;;7.80;99.90;;;;;;4969309;28;20116;-88
2022/12/30 03:28:14;;;;;;;3.75;1.00;;;7.70;99.90;;;;;;4968990;28;22969;-88
2022/12/30 03:30:46;;;;;;;3.95;1.25;;;7.70;99.90;;;;;;4988541;28;20040;-88
2022/12/30 03:33:12;;;;;;;4.20;0.80;;;7.70;99.90;;;;;;4960154;28;20022;-88
2022/12/30 03:35:48;;;;;;;2.67;0.70;;;7.60;99.90;;;;;;4970042;28;20017;-88
2022/12/30 03:38:18;;;;;;;3.17;0.70;;;7.60;99.90;;;;;;4955511;28;20064;-88
2022/12/30 03:40:47;;;;;;;2.80;0.88;;;7.60;99.90;;;;;;4969672;28;20061;-88
2022/12/30 03:43:14;;;;;;;3.42;0.82;;;7.60;99.90;;;;;;4971063;28;20073;-88
2022/12/30 03:45:40;;;;;;;3.30;0.80;;;7.60;99.90;;;;;;4957077;28;20025;-88
2022/12/30 03:48:05;;;;;;;2.65;0.70;;;7.50;99.90;;;;;;4961892;28;20043;-88
2022/12/30 03:50:31;;;;;;;2.55;1.00;;;7.50;99.90;;;;;;4976311;28;20029;-88
2022/12/30 03:52:57;;;;;;;3.70;0.90;;;7.50;99.90;;;;;;4947243;28;20041;-88
2022/12/30 03:55:23;;;;;;;2.47;0.80;;;7.50;99.90;;;;;;4974108;28;20713;-88
2022/12/30 03:57:48;;;;;;;4.43;0.83;;;7.40;99.90;;;;;;4974335;28;20390;-88
2022/12/30 04:00:14;;;;;;;5.28;1.10;;;7.40;99.90;;;;;;4964926;28;20021;-88
2022/12/30 04:02:40;;;;;;;2.33;0.80;;;7.40;99.90;;;;;;4980807;28;20041;-88
2022/12/30 04:05:07;;;;;;;3.83;1.00;;;7.40;99.90;;;;;;4979956;28;20038;-88
2022/12/30 04:07:34;;;;;;;2.63;0.77;;;7.40;99.90;;;;;;4976115;28;20671;-88
2022/12/30 04:10:00;;;;;;;2.80;0.80;;;7.40;99.90;;;;;;4966977;28;20422;-88
2022/12/30 04:12:26;;;;;;;2.85;0.95;;;7.40;99.90;;;;;;4978808;28;20742;-88
2022/12/30 04:14:52;;;;;;;2.47;0.90;;;7.40;99.90;;;;;;4992369;28;20026;-88
2022/12/30 04:17:18;;;;;;;3.28;0.80;;;7.40;99.90;;;;;;4969830;28;20057;-88
2022/12/30 04:19:43;;;;;;;1.77;0.77;;;7.30;99.90;;;;;;4969395;28;20338;-88
2022/12/30 04:22:09;;;;;;;5.47;0.90;;;7.30;99.90;;;;;;4975768;28;20030;-88
2022/12/30 04:24:35;;;;;;;1.57;0.70;;;7.30;99.90;;;;;;4973234;28;20029;-88
2022/12/30 04:27:01;;;;;;;3.17;0.98;;;7.30;99.90;;;;;;4971328;28;20048;-88
2022/12/30 04:29:27;;;;;;;2.10;0.75;;;7.30;99.90;;;;;;4979902;28;20026;-88
2022/12/30 04:31:52;;;;;;;4.20;0.83;;;7.30;99.90;;;;;;4964647;28;20030;-88
2022/12/30 04:34:18;;;;;;;3.85;0.75;;;7.30;99.90;;;;;;4967619;28;20545;-88
2022/12/30 04:36:44;;;;;;;4.47;1.20;;;7.30;99.90;;;;;;4976961;28;20025;-88
2022/12/30 04:39:10;;;;;;;3.23;0.90;;;7.20;99.90;;;;;;4953898;28;20017;-88
2022/12/30 04:41:36;;;;;;;4.20;1.25;;;7.20;99.90;;;;;;4975644;28;20033;-88
2022/12/30 04:44:03;;;;;;;2.63;0.90;;;7.20;99.90;;;;;;4977223;28;20076;-88
2022/12/30 04:46:29;;;;;;;2.73;0.90;;;7.20;99.90;;;;;;4992463;28;20028;-88
2022/12/30 04:48:55;;;;;;;3.38;0.90;;;7.20;99.90;;;;;;4964596;28;20025;-88
2022/12/30 04:51:21;;;;;;;3.92;1.10;;;7.20;99.90;;;;;;4981579;28;20558;-88
2022/12/30 04:53:47;;;;;;;3.95;0.85;;;7.20;99.90;;;;;;4992536;28;20071;-88
2022/12/30 04:56:12;;;;;;;5.13;1.43;;;7.20;99.90;;;;;;4953897;28;20228;-88
2022/12/30 04:58:38;;;;;;;5.83;1.20;;;7.30;99.90;;;;;;4980677;28;20497;-88
2022/12/30 05:01:05;;;;;;;4.50;1.00;;;7.30;99.90;;;;;;4971051;28;20280;-88
2022/12/30 05:03:31;;;;;;;3.55;0.90;;;7.30;99.90;;;;;;4956758;28;20029;-88
2022/12/30 05:05:57;;;;;;;2.67;0.73;;;7.30;99.90;;;;;;4964689;28;20021;-85
2022/12/30 05:08:23;;;;;;;3.70;1.08;;;7.30;99.90;;;;;;4977330;28;20219;-88
2022/12/30 05:10:49;;;;;;;3.10;1.10;;;7.30;99.90;;;;;;4941691;28;20026;-88
2022/12/30 05:13:15;;;;;;;5.22;1.20;;;7.30;99.90;;;;;;4988968;28;20289;-88
2022/12/30 05:15:41;;;;;;;4.97;1.40;;;7.30;99.90;;;;;;4986716;28;20029;-88
2022/12/30 05:18:08;;;;;;;6.83;1.67;;;7.40;99.90;;;;;;4976325;28;20476;-88
2022/12/30 05:20:34;;;;;;;6.30;1.58;;;7.30;99.90;;;;;;4987960;28;20026;-87
2022/12/30 05:22:59;;;;;;;5.72;1.67;;;7.40;99.90;;;;;;4975785;28;20049;-88
2022/12/30 05:28:09;;;;;;;6.93;1.88;;;7.40;99.90;;;;;;5005308;28;20033;-87
2022/12/30 05:30:35;;;;;;;5.80;1.77;;;7.40;99.90;;;;;;4989947;28;20648;-88
2022/12/30 05:33:00;;;;;;;8.40;1.80;;;7.40;99.90;;;;;;4980585;28;20044;-88
2022/12/30 05:35:26;;;;;;;5.17;1.70;;;7.40;99.90;;;;;;4974961;28;20669;-88
2022/12/30 05:37:54;;;;;;;3.87;1.50;;;7.50;99.90;;;;;;4966542;28;20280;-88
2022/12/30 05:40:20;;;;;;;4.38;1.95;;;7.50;99.90;;;;;;4954560;28;21195;-87
2022/12/30 05:42:46;;;;;;;3.47;1.45;;;7.50;99.90;;;;;;4994749;28;20030;-87
2022/12/30 05:45:12;;;;;;;4.33;1.40;;;7.50;99.90;;;;;;4988515;28;20449;-88
2022/12/30 05:47:38;;;;;;;5.60;1.65;;;7.50;99.90;;;;;;5005513;28;20466;-88
2022/12/30 05:50:04;;;;;;;4.28;1.52;;;7.50;99.90;;;;;;4976234;28;20470;-87
2022/12/30 05:52:30;;;;;;;5.10;1.80;;;7.50;99.90;;;;;;4970640;28;20049;-86
2022/12/30 05:54:56;;;;;;;4.30;1.53;;;7.60;99.90;;;;;;4977164;28;20397;-88
2022/12/30 05:57:22;;;;;;;6.93;2.33;;;7.50;99.90;;;;;;4949066;28;20158;-88
2022/12/30 05:59:48;;;;;;;6.65;1.90;;;7.60;99.90;;;;;;4971787;28;20037;-88
2022/12/30 06:02:14;;;;;;;4.00;1.60;;;7.60;99.90;;;;;;4951686;28;20214;-88
2022/12/30 06:04:39;;;;;;;5.80;1.65;;;7.60;99.90;;;;;;4947147;28;20167;-87
2022/12/30 06:07:05;;;;;;;4.27;1.40;;;7.60;99.90;;;;;;4989137;28;20057;-87
2022/12/30 06:09:31;;;;;;;6.82;1.95;;;7.60;99.90;;;;;;4963332;28;20132;-88
2022/12/30 06:11:57;;;;;;;5.90;1.80;;;7.60;99.90;;;;;;4950143;28;20133;-89
2022/12/30 06:14:23;;;;;;;6.72;1.65;;;7.60;99.90;;;;;;4987202;28;20034;-88
2022/12/30 06:16:49;;;;;;;4.30;1.55;;;7.60;99.90;;;;;;4970100;28;20369;-88
2022/12/30 06:19:14;;;;;;;5.03;1.70;;;7.70;99.90;;;;;;4957701;28;20021;-88
2022/12/30 06:21:40;;;;;;;3.40;1.30;;;7.70;99.90;;;;;;4962030;28;20164;-86
2022/12/30 06:24:06;;;;;;;3.73;1.50;;;7.70;99.90;;;;;;4951973;28;20034;-88
2022/12/30 06:26:32;;;;;;;4.72;1.80;;;7.70;99.90;;;;;;4954605;28;20247;-89
2022/12/30 06:28:58;;;;;;;4.80;1.73;;;7.70;99.90;;;;;;4963306;28;20026;-87
2022/12/30 06:31:24;;;;;;;3.33;1.40;;;7.70;99.90;;;;;;4969580;28;20157;-88
2022/12/30 06:33:50;;;;;;;5.05;1.70;;;7.70;99.90;;;;;;4978611;28;20022;-88
2022/12/30 06:36:16;;;;;;;3.63;1.80;;;7.70;99.90;;;;;;4960307;28;20026;-86
2022/12/30 06:38:42;;;;;;;4.20;1.40;;;7.80;99.90;;;;;;4955817;28;21388;-88
2022/12/30 06:41:07;;;;;;;4.53;1.70;;;7.80;99.90;;;;;;4981457;28;20040;-88
2022/12/30 06:43:34;;;;;;;5.57;1.63;;;7.80;99.90;;;;;;4944490;28;20270;-88
2022/12/30 06:46:00;;;;;;;3.15;1.30;;;7.90;99.90;;;;;;4983298;28;21265;-88
2022/12/30 06:48:26;;;;;;;4.03;1.58;;;7.90;99.90;;;;;;4969924;28;20688;-88
2022/12/30 06:50:59;;;;;;;3.40;1.40;;;8.00;99.90;;;;;;4946588;28;20589;-88
2022/12/30 06:53:25;;;;;;;4.40;1.40;;;8.00;99.90;;;;;;4964516;28;21639;-88
2022/12/30 06:55:50;;;;;;;3.78;1.65;;;8.00;99.90;;;;;;4943361;28;20018;-88
2022/12/30 06:58:16;;;;;;;2.92;1.20;;;8.00;99.90;;;;;;4947063;28;20022;-87
2022/12/30 07:00:42;;;;;;;2.40;1.20;;;8.10;99.90;;;;;;4962392;28;20158;-88
2022/12/30 07:03:10;;;;;;;3.67;1.47;;;8.00;99.90;;;;;;4970822;28;20121;-88
2022/12/30 07:05:36;;;;;;;2.93;1.10;;;8.10;99.90;;;;;;4955991;28;20316;-88
2022/12/30 07:08:01;;;;;;;4.32;1.20;;;8.10;99.90;;;;;;4969816;28;20038;-87
2022/12/30 07:10:27;;;;;;;3.60;1.30;;;8.10;99.90;;;;;;4961077;28;20034;-88
2022/12/30 07:12:54;;;;;;;5.60;1.53;;;8.10;99.90;;;;;;4969835;28;20030;-88
2022/12/30 07:15:20;;;;;;;4.25;1.50;;;8.10;99.90;;;;;;4949798;28;20016;-88
2022/12/30 07:17:46;;;;;;;4.30;1.15;;;8.20;99.90;;;;;;4983447;28;20069;-88
2022/12/30 07:20:13;;;;;;;3.10;1.30;;;8.20;99.90;;;;;;4955919;28;20068;-86
2022/12/30 07:22:40;;;;;;;4.50;1.37;;;8.30;99.90;;;;;;4955099;28;20301;-88
2022/12/30 07:25:06;;;;;;;3.50;1.35;;;8.30;99.90;;;;;;4977825;28;20050;-87
2022/12/30 07:27:32;;;;;;;4.07;1.40;;;8.40;99.90;;;;;;4972198;28;20029;-88
2022/12/30 07:29:58;;;;;;;4.38;1.55;;;8.40;99.90;;;;;;4966774;28;20045;-88
2022/12/30 07:32:24;;;;;;;3.77;1.53;;;8.40;99.90;;;;;;4970074;28;20034;-88
2022/12/30 07:34:50;;;;;;;3.28;1.30;;;8.40;99.90;;;;;;4956475;28;20305;-88
2022/12/30 07:37:16;;;;;;;4.10;1.57;;;8.50;99.90;;;;;;4960207;28;20049;-85
2022/12/30 07:39:41;;;;;;;3.13;1.27;;;8.50;99.90;;;;;;4952229;28;20100;-88
2022/12/30 07:42:07;;;;;;;3.72;1.40;;;8.60;99.90;;;;;;4974131;28;20084;-88
2022/12/30 07:44:33;;;;;;;3.03;1.20;;;8.60;99.90;;;;;;4963780;28;20128;-88
2022/12/30 07:46:59;;;;;;;3.50;1.40;;;8.70;99.90;;;;;;4935734;28;20121;-86
2022/12/30 07:49:24;;;;;;;3.67;1.20;;;8.70;99.90;;;;;;4964195;28;20022;-87
2022/12/30 07:51:50;;;;;;;3.15;1.27;;;8.70;99.90;;;;;;4963266;28;20046;-89
2022/12/30 07:54:16;;;;;;;3.57;1.20;;;8.80;99.90;;;;;;4963391;28;20022;-88
2022/12/30 07:56:42;;;;;;;3.22;1.20;;;8.80;99.90;;;;;;4956944;28;20026;-88
2022/12/30 07:59:11;;;;;;;4.95;1.10;;;8.80;99.90;;;;;;4951065;28;20430;-89
2022/12/30 08:01:37;;;;;;;4.53;1.50;;;8.80;99.90;;;;;;4947679;28;20025;-88
2022/12/30 08:04:04;;;;;;;1.90;1.00;;;8.90;99.90;;;;;;4981322;28;20026;-88
2022/12/30 08:06:29;;;;;;;2.55;1.10;;;8.90;99.90;;;;;;4948078;28;20969;-88
2022/12/30 08:08:55;;;;;;;2.77;1.07;;;8.90;99.90;;;;;;4946355;28;20022;-88
2022/12/30 08:11:21;;;;;;;2.42;1.13;;;8.90;99.90;;;;;;4957196;28;20127;-88
2022/12/30 08:13:46;;;;;;;4.53;1.47;;;8.90;99.90;;;;;;4942482;28;20030;-85
2022/12/30 08:16:14;;;;;;;3.80;0.95;;;8.90;99.90;;;;;;4960324;28;20717;-87
2022/12/30 08:18:41;;;;;;;3.53;1.20;;;8.90;99.90;;;;;;4942328;28;20040;-87
2022/12/30 08:21:14;;;;;;;2.70;1.40;;;9.00;99.90;;;;;;4982801;28;20105;-88
2022/12/30 08:23:42;;;;;;;1.80;0.93;;;9.00;99.90;;;;;;4940328;28;20018;-88
2022/12/30 08:26:11;;;;;;;2.90;1.20;;;9.00;99.90;;;;;;4963679;28;20022;-85
2022/12/30 08:28:37;;;;;;;2.13;1.08;;;9.00;99.90;;;;;;4949637;28;20027;-87
2022/12/30 08:31:09;;;;;;;2.47;1.20;;;9.00;99.90;;;;;;4970075;28;20030;-87
2022/12/30 08:33:34;;;;;;;2.20;1.00;;;9.10;99.90;;;;;;4958423;28;20037;-87
2022/12/30 08:36:05;;;;;;;2.10;0.93;;;9.10;99.90;;;;;;4965764;28;20022;-88
2022/12/30 08:38:35;;;;;;;1.95;1.00;;;9.10;99.90;;;;;;4958786;28;20045;-87
2022/12/30 08:41:12;;;;;;;3.58;1.17;;;9.10;99.90;;;;;;4973473;28;20227;-87
2022/12/30 08:43:39;;;;;;;1.75;1.00;;;9.10;99.90;;;;;;4955105;28;20030;-87
2022/12/30 08:46:06;;;;;;;2.43;1.00;;;9.20;99.90;;;;;;4961648;28;20049;-87
2022/12/30 08:48:33;;;;;;;2.90;1.15;;;9.20;99.90;;;;;;4964146;28;20092;-88
2022/12/30 08:51:00;;;;;;;2.88;0.90;;;9.20;99.90;;;;;;4965513;28;20030;-88
2022/12/30 08:53:26;;;;;;;2.30;0.95;;;9.30;99.90;;;;;;4947455;28;20654;-89
2022/12/30 08:56:12;;;;;;;0.83;0.77;;;9.30;99.90;;;;;;4967098;28;20033;-88
2022/12/30 08:58:39;;;;;;;2.45;0.80;;;9.30;99.90;;;;;;4943961;28;20569;-87
2022/12/30 09:01:10;;;;;;;2.05;0.70;;;9.40;99.90;;;;;;4962260;28;20108;-88
2022/12/30 09:03:37;;;;;;;1.75;0.70;;;9.40;99.90;;;;;;4950123;28;20121;-86
2022/12/30 09:06:03;;;;;;;3.45;0.90;;;9.40;99.90;;;;;;4985955;28;20478;-87
2022/12/30 09:08:29;;;;;;;2.23;1.00;;;9.40;99.90;;;;;;4936758;28;20829;-87
2022/12/30 09:10:57;;;;;;;1.80;0.80;;;9.50;99.90;;;;;;4971047;28;20018;-88
2022/12/30 09:13:23;;;;;;;2.95;0.90;;;9.60;99.90;;;;;;4947347;28;20351;-86
2022/12/30 09:15:50;;;;;;;2.57;0.97;;;9.60;99.90;;;;;;4926306;28;20473;-87
2022/12/30 09:18:17;;;;;;;2.15;0.90;;;9.60;99.90;;;;;;4935718;28;20023;-87
2022/12/30 09:20:43;;;;;;;1.90;0.80;;;9.70;99.90;;;;;;4952798;28;20481;-88
2022/12/30 09:23:09;;;;;;;2.53;1.02;;;9.70;99.90;;;;;;4959542;28;20735;-88
2022/12/30 09:25:35;;;;;;;2.00;0.88;;;9.80;99.90;;;;;;4952171;28;20113;-87
2022/12/30 09:28:01;;;;;;;2.87;1.00;;;9.80;99.90;;;;;;4972333;28;20041;-89
2022/12/30 09:30:27;;;;;;;2.72;0.85;;;9.80;99.90;;;;;;4960270;28;20687;-88
2022/12/30 09:32:55;;;;;;;3.40;0.98;;;9.90;99.90;;;;;;4975490;28;20148;-89
2022/12/30 09:35:21;;;;;;;3.60;1.00;;;9.90;99.90;;;;;;4963136;28;20036;-87
2022/12/30 09:37:46;;;;;;;2.67;0.98;;;10.00;99.90;;;;;;4943740;28;20099;-88
2022/12/30 09:40:19;;;;;;;3.53;0.90;;;10.00;99.90;;;;;;4944051;28;20010;-87
2022/12/30 09:45:58;;;;;;;2.58;1.45;;;10.00;99.90;;;;;;4955712;28;20447;-88
2022/12/30 09:48:27;;;;;;;3.60;0.90;;;10.10;99.90;;;;;;4942399;28;20041;-87
2022/12/30 09:50:59;;;;;;;2.60;0.80;;;10.10;99.90;;;;;;4950990;28;20030;-87
2022/12/30 09:53:27;;;;;;;3.67;0.97;;;10.20;99.90;;;;;;4955474;28;20562;-86
2022/12/30 09:56:38;;;;;;;2.20;1.05;;;10.20;99.90;;;;;;4960080;28;20022;-86
2022/12/30 09:59:17;;;;;;;3.30;1.02;;;10.20;99.90;;;;;;4976978;28;20545;-88
2022/12/30 10:01:45;;;;;;;3.42;0.90;;;10.20;99.90;;;;;;4960606;28;20608;-88
2022/12/30 10:04:19;;;;;;;2.33;1.13;;;10.30;99.90;;;;;;4972714;28;20034;-87
2022/12/30 10:07:04;;;;;;;4.37;1.20;;;10.30;99.90;;;;;;4935698;28;20537;-87
2022/12/30 10:09:44;;;;;;;3.38;1.10;;;10.30;99.90;;;;;;4954054;28;20072;-88
2022/12/30 10:12:26;;;;;;;4.70;1.00;;;10.40;99.90;;;;;;4974233;28;20422;-86
2022/12/30 10:15:29;;;;;;;3.53;1.13;;;10.40;99.90;;;;;;4955257;28;20673;-87
2022/12/30 10:18:34;;;;;;;4.35;1.10;;;10.50;99.90;;;;;;4978690;28;20378;-87
2022/12/30 10:21:15;;;;;;;3.43;1.00;;;10.50;99.90;;;;;;4958724;28;20986;-84
2022/12/30 10:23:54;;;;;;;4.38;1.30;;;10.50;99.90;;;;;;4955464;28;20111;-87
2022/12/30 10:26:38;;;;;;;5.07;1.10;;;10.50;99.90;;;;;;4978497;28;20045;-87
2022/12/30 10:29:12;;;;;;;2.72;0.90;;;10.60;99.90;;;;;;4963725;28;20084;-86
2022/12/30 10:31:38;;;;;;;3.45;1.10;;;10.60;99.90;;;;;;4954014;28;20038;-88
2022/12/30 10:34:14;;;;;;;3.43;1.00;;;10.60;99.90;;;;;;4963369;28;20037;-88
2022/12/30 10:37:03;;;;;;;2.70;1.20;;;10.70;99.90;;;;;;4963456;28;20933;-88
2022/12/30 10:39:35;;;;;;;3.75;1.08;;;10.70;99.90;;;;;;4986907;28;20036;-86
2022/12/30 10:42:36;;;;;;;2.10;1.00;;;10.80;99.90;;;;;;4968311;28;20273;-87
2022/12/30 10:45:09;;;;;;;3.85;1.02;;;10.80;99.90;;;;;;4983405;28;20604;-87
2022/12/30 10:47:58;;;;;;;3.03;0.97;;;10.80;99.90;;;;;;4972936;28;20021;-87
2022/12/30 10:50:38;;;;;;;3.50;0.90;;;10.90;99.90;;;;;;4977888;28;20029;-86
2022/12/30 10:53:10;;;;;;;3.30;0.90;;;10.90;99.90;;;;;;4957489;28;20045;-88
2022/12/30 10:55:45;;;;;;;2.17;0.77;;;10.90;99.90;;;;;;4957764;28;20018;-88
2022/12/30 10:58:19;;;;;;;1.90;0.80;;;11.00;99.90;;;;;;4957081;28;20117;-88
2022/12/30 11:00:45;;;;;;;3.13;1.07;;;11.00;99.90;;;;;;4984672;28;20463;-88
2022/12/30 11:03:29;;;;;;;3.17;1.00;;;11.00;99.90;;;;;;4957855;28;20029;-86
2022/12/30 11:05:55;;;;;;;2.53;0.90;;;11.10;99.90;;;;;;4962382;28;20338;-87
2022/12/30 11:08:28;;;;;;;3.22;0.95;;;11.10;99.90;;;;;;4935434;28;20481;-88
2022/12/30 11:11:02;;;;;;;5.07;1.20;;;11.20;99.90;;;;;;4975726;28;20458;-88
2022/12/30 11:16:14;;;;;;;2.70;0.90;;;11.30;99.90;;;;;;4981506;28;20404;-88
2022/12/30 11:18:44;;;;;;;6.18;1.10;;;11.30;99.90;;;;;;4955924;28;20550;-84
2022/12/30 11:21:10;;;;;;;2.95;0.80;;;11.40;99.90;;;;;;4955221;28;20679;-85
2022/12/30 11:23:40;;;;;;;3.55;1.20;;;11.40;99.90;;;;;;4983246;28;20030;-88
2022/12/30 11:26:18;;;;;;;3.90;0.80;;;11.40;99.90;;;;;;4938831;28;20868;-87
2022/12/30 11:28:53;;;;;;;3.13;0.85;;;11.50;99.90;;;;;;4969300;28;20028;-85
2022/12/30 11:31:19;;;;;;;2.60;0.70;;;11.40;99.90;;;;;;4973613;28;20695;-86
2022/12/30 11:33:58;;;;;;;3.35;0.88;;;11.50;99.90;;;;;;4969658;28;20402;-87
2022/12/30 11:36:27;;;;;;;2.47;0.95;;;11.40;99.90;;;;;;4977678;28;20036;-88
2022/12/30 11:38:54;;;;;;;5.63;1.23;;;11.40;99.90;;;;;;4958533;28;20379;-84
2022/12/30 11:41:22;;;;;;;2.47;0.90;;;11.40;99.90;;;;;;4965239;28;20675;-87
2022/12/30 11:43:58;;;;;;;1.63;0.70;;;11.30;99.90;;;;;;4956624;28;20678;-86
2022/12/30 11:46:29;;;;;;;4.13;0.90;;;11.20;99.90;;;;;;4974765;28;20022;-86
2022/12/30 11:49:00;;;;;;;2.88;0.70;;;11.10;99.90;;;;;;4947827;28;21517;-86
2022/12/30 11:51:33;;;;;;;2.00;1.00;;;11.10;99.90;;;;;;4957956;28;20042;-86
2022/12/30 11:54:07;;;;;;;2.65;0.80;;;11.00;99.90;;;;;;4982103;28;20022;-86
2022/12/30 11:56:33;;;;;;;3.03;1.27;;;11.00;99.90;;;;;;4959307;28;20096;-85
2022/12/30 11:59:13;;;;;;;2.60;0.90;;;10.90;99.90;;;;;;4953766;28;20068;-86
2022/12/30 12:01:49;;;;;;;1.70;0.70;;;10.90;99.90;;;;;;4973004;28;20665;-85
2022/12/30 12:04:38;;;;;;;1.60;0.80;;;10.90;99.90;;;;;;4954049;28;20027;-85
2022/12/30 12:07:17;;;;;;;1.80;0.70;;;10.80;99.90;;;;;;4963242;28;20655;-84
2022/12/30 12:09:52;;;;;;;4.47;1.00;;;10.70;99.90;;;;;;4979654;28;20506;-84
2022/12/30 12:12:22;;;;;;;2.03;0.70;;;10.70;99.90;;;;;;4934639;28;20053;-84
2022/12/30 12:15:06;;;;;;;2.03;0.60;;;10.70;99.90;;;;;;4982975;28;20022;-83
2022/12/30 12:17:48;;;;;;;2.43;0.63;;;10.70;99.90;;;;;;4957881;28;20117;-85
2022/12/30 12:20:22;;;;;;;1.23;0.68;;;10.60;99.90;;;;;;4944908;28;20022;-85
2022/12/30 12:22:54;;;;;;;1.58;0.80;;;10.60;99.90;;;;;;4968476;28;20022;-83
2022/12/30 12:25:29;;;;;;;1.00;0.73;;;10.60;99.90;;;;;;4980026;28;20026;-85
2022/12/30 12:27:55;;;;;;;1.38;0.73;;;10.60;99.90;;;;;;4933966;28;20331;-85
2022/12/30 12:30:21;;;;;;;2.10;0.80;;;10.60;99.90;;;;;;4975598;28;20429;-84
2022/12/30 12:33:12;;;;;;;1.60;0.60;;;10.60;99.90;;;;;;4975449;28;20512;-84
2022/12/30 12:35:40;;;;;;;1.73;0.80;;;10.60;99.90;;;;;;4964711;28;20042;-85
2022/12/30 12:38:21;;;;;;;3.35;1.17;;;10.70;99.90;;;;;;4979788;28;20642;-84
2022/12/30 12:40:56;;;;;;;2.17;0.85;;;10.70;99.90;;;;;;4935743;28;20128;-84
2022/12/30 12:43:33;;;;;;;1.83;0.80;;;10.70;99.90;;;;;;4975930;28;20091;-85
2022/12/30 12:46:17;;;;;;;5.25;1.00;;;10.70;99.90;;;;;;4971599;28;20030;-85
2022/12/30 12:49:18;;;;;;;0.80;0.60;;;10.70;99.90;;;;;;4958777;28;20507;-85
2022/12/30 12:52:08;;;;;;;1.25;0.60;;;10.70;99.90;;;;;;4956320;28;20417;-83
2022/12/30 12:55:16;;;;;;;2.70;0.70;;;10.70;99.90;;;;;;5004028;28;20046;-83
2022/12/30 12:57:51;;;;;;;1.25;0.60;;;10.70;99.90;;;;;;4977696;28;20030;-83
2022/12/30 13:00:19;;;;;;;1.80;0.65;;;10.70;99.90;;;;;;4961930;28;20030;-83
2022/12/30 13:03:18;;;;;;;1.73;0.50;;;10.70;99.90;;;;;;4962001;28;20033;-83
2022/12/30 13:06:10;;;;;;;1.17;0.65;;;10.70;99.90;;;;;;4957147;28;20038;-84
2022/12/30 13:09:05;;;;;;;1.63;0.60;;;10.80;99.90;;;;;;4963393;28;20064;-86
2022/12/30 13:11:46;;;;;;;0.88;0.60;;;10.70;99.90;;;;;;4965105;28;20044;-84
2022/12/30 13:14:34;;;;;;;1.27;0.80;;;10.80;99.90;;;;;;4981824;28;20034;-83
2022/12/30 13:17:03;;;;;;;1.30;0.63;;;10.80;99.90;;;;;;4977408;28;20037;-84
2022/12/30 13:19:34;;;;;;;1.88;0.55;;;10.80;99.90;;;;;;4964358;28;21580;-86
2022/12/30 13:22:07;;;;;;;1.13;0.65;;;10.80;99.90;;;;;;4979465;28;20029;-85
2022/12/30 13:24:39;;;;;;;1.75;0.70;;;10.80;99.90;;;;;;4975737;28;20044;-83
2022/12/30 13:27:12;;;;;;;2.50;0.80;;;10.80;99.90;;;;;;4981521;28;20026;-84
2022/12/30 13:29:39;;;;;;;1.50;0.57;;;10.80;99.90;;;;;;4934521;28;20030;-85
2022/12/30 13:32:41;;;;;;;1.00;0.50;;;10.80;99.90;;;;;;4977296;28;20109;-86
2022/12/30 13:35:42;;;;;;;1.10;0.57;;;10.80;99.90;;;;;;4969074;28;20026;-84
2022/12/30 13:38:26;;;;;;;1.73;0.50;;;10.90;99.90;;;;;;4987940;28;20079;-83
2022/12/30 13:41:07;;;;;;;0.95;0.60;;;10.90;99.90;;;;;;4983591;28;20291;-84
2022/12/30 13:43:33;;;;;;;1.00;0.50;;;10.90;99.90;;;;;;4943621;28;20040;-86
2022/12/30 13:46:01;;;;;;;1.38;0.73;;;11.00;99.90;;;;;;4959475;28;20664;-84
2022/12/30 13:48:30;;;;;;;1.50;0.63;;;11.00;99.90;;;;;;4978034;28;20026;-84
2022/12/30 13:51:16;;;;;;;0.90;0.60;;;11.00;99.90;;;;;;4978611;28;20183;-86
2022/12/30 13:53:53;;;;;;;0.70;0.70;;;11.00;99.90;;;;;;4958580;28;20030;-83
2022/12/30 13:56:41;;;;;;;0.70;0.70;;;11.10;99.90;;;;;;4975481;28;20053;-84
2022/12/30 13:59:36;;;;;;;1.10;0.70;;;11.10;99.90;;;;;;4930883;28;20516;-85
2022/12/30 14:02:21;;;;;;;1.77;0.85;;;11.20;99.90;;;;;;4961154;28;20025;-85
2022/12/30 14:04:56;;;;;;;0.90;0.60;;;11.20;99.90;;;;;;4960861;28;20387;-86
2022/12/30 14:07:42;;;;;;;0.77;0.60;;;11.20;99.90;;;;;;4969980;28;20109;-85
2022/12/30 14:10:14;;;;;;;0.77;0.70;;;11.30;99.90;;;;;;4975192;28;20029;-84